Minocqua, WI (54548)

8:30 PM CST on February 13, 2016 (GMT -0600)
Woodland Drive, Woodruff | | Change Station
CLOSE
Current Station
Personal Weather Station
Location: Woodruff, WI
Elevation: 1660 ft
Nearby Weather Stations

Elev 1660 ft 45.84 °N, 89.64 °W | Updated 6 seconds ago

Mostly Cloudy
Mostly Cloudy
-1.8 °F
Feels Like -2 °F
N
0.0
Wind Variable Wind from West
Gusts 0.0 mph

Today
High -- | Low -- °F
--% Chance of Precip.
Yesterday
High -- | Low -- °F
Precip. -- in
Pressure 30.35 in
Visibility 10.0 miles
Clouds Clear
Windchill -2 °F
Dew Point -13 °F
Humidity 58%
Rainfall 0.00 in
Snow Depth Not available.
7:05 AM 5:21 PM
Waxing Crescent, 36% visible
METAR KARV 140215Z AUTO 00000KT 10SM CLR M21/M25 A3035 RMK AO2 T12121253
Pressure 30.35 in
Visibility 10.0 miles
Clouds Clear
Windchill -2 °F
Dew Point -13 °F
Humidity 58%
Rainfall 0.00 in
Snow Depth Not available.
7:05 AM 5:21 PM
Waxing Crescent, 36% visible
METAR KARV 140215Z AUTO 00000KT 10SM CLR M21/M25 A3035 RMK AO2 T12121253

10-Day Weather Forecast

Almanac

Astronomy

Feb. 13, 2016 Rise Set
Actual Time
Civil Twilight
Nautical Twilight
Astronomical Twilight
Moon
Length of Visible Light
Length of Day
Tomorrow will be .
, % of the Moon is Illuminated

Today's Extremes

State Highs State Lows

Community

WunderPhotos

Upload Photos

1,892,726 photos uploaded!

WunderBlog® & News

Nearby

Air Quality

  Air Quality AQ Index Pollutant
Not available.

Snow Depth

Station Depth Elevation

Earthquake Activity

City Distance Mag. Time & Date
Minimum magnitude displayed is 2.5.

Coastal Water Temperatures

Place Temperature

Stations

Nearby Weather Stations

Station Location Temp. Windchill Dew Point Humidity Wind Precip. Elev Updated Type
                   

Watches & Warnings

There are currently no watches in effect.